createdAt,value
2022-08-01T00:00:48.590Z,22.34
2022-08-01T00:03:15.576Z,22.40
2022-08-01T00:05:44.395Z,22.44
2022-08-01T00:08:11.346Z,22.43
2022-08-01T00:10:38.369Z,22.27
2022-08-01T00:13:05.259Z,22.29
2022-08-01T00:15:33.361Z,22.35
2022-08-01T00:18:00.438Z,22.35
2022-08-01T00:20:27.899Z,22.29
2022-08-01T00:22:54.866Z,22.23
2022-08-01T00:25:21.810Z,22.26
2022-08-01T00:28:01.021Z,22.31
2022-08-01T00:30:27.926Z,22.28
2022-08-01T00:32:54.822Z,22.24
2022-08-01T00:35:21.747Z,22.26
2022-08-01T00:37:48.694Z,22.30
2022-08-01T00:40:15.787Z,22.34
2022-08-01T00:42:43.862Z,22.36
2022-08-01T00:45:12.639Z,22.37
2022-08-01T00:47:40.412Z,22.41
2022-08-01T00:50:08.922Z,22.45
2022-08-01T00:52:36.737Z,22.37
2022-08-01T00:55:04.417Z,22.31
2022-08-01T00:58:04.905Z,22.28
2022-08-01T01:00:19.187Z,22.28
2022-08-01T01:02:54.612Z,22.26
2022-08-01T01:05:21.770Z,22.26
2022-08-01T01:08:00.675Z,22.21
2022-08-01T01:10:43.794Z,22.18
2022-08-01T01:13:23.070Z,22.15
2022-08-01T01:16:05.398Z,22.06
2022-08-01T01:18:46.158Z,22.10
2022-08-01T01:21:19.040Z,22.08
2022-08-01T01:24:35.204Z,22.00
2022-08-01T01:27:49.209Z,21.96
2022-08-01T01:30:16.797Z,21.86
2022-08-01T01:32:51.741Z,21.83
2022-08-01T01:35:28.402Z,21.83
2022-08-01T01:38:08.565Z,21.79
2022-08-01T01:40:37.852Z,21.71
2022-08-01T01:43:10.624Z,21.60
2022-08-01T01:45:38.274Z,21.48
2022-08-01T01:48:08.574Z,21.40
2022-08-01T01:50:39.759Z,21.29
2022-08-01T01:53:15.063Z,21.28
2022-08-01T01:55:49.522Z,21.19
2022-08-01T01:58:19.179Z,21.10
2022-08-01T02:00:48.733Z,21.09
2022-08-01T02:03:20.750Z,21.18
2022-08-01T02:05:49.471Z,21.27
2022-08-01T02:08:18.273Z,21.33
2022-08-01T02:11:07.335Z,21.30
2022-08-01T02:13:38.042Z,21.33
2022-08-01T02:16:06.740Z,21.25
2022-08-01T02:18:34.423Z,21.23
2022-08-01T02:21:06.467Z,21.24
2022-08-01T02:23:37.028Z,21.22
2022-08-01T02:26:14.517Z,21.18
2022-08-01T02:29:11.492Z,21.25
2022-08-01T02:31:45.861Z,21.27
2022-08-01T02:34:19.240Z,21.25
2022-08-01T02:36:49.351Z,21.23
2022-08-01T02:39:20.004Z,21.19
2022-08-01T02:41:53.601Z,21.16
2022-08-01T02:44:31.155Z,21.19
2022-08-01T02:47:03.441Z,21.12
2022-08-01T02:49:40.050Z,21.11
2022-08-01T02:52:13.738Z,21.12
2022-08-01T02:54:44.650Z,21.14
2022-08-01T02:57:14.197Z,21.11
2022-08-01T02:59:46.134Z,21.09
2022-08-01T03:02:15.573Z,21.01
2022-08-01T03:04:44.031Z,20.97
2022-08-01T03:07:14.091Z,20.93
2022-08-01T03:09:46.850Z,20.99
2022-08-01T03:12:18.178Z,21.04
2022-08-01T03:14:48.826Z,21.05
2022-08-01T03:17:21.984Z,21.02
2022-08-01T03:19:50.986Z,20.97
2022-08-01T03:22:20.554Z,20.91
2022-08-01T03:24:52.973Z,20.88
2022-08-01T03:27:25.337Z,21.01
2022-08-01T03:29:56.507Z,21.05
2022-08-01T03:32:26.774Z,21.02
2022-08-01T03:34:53.770Z,20.92
2022-08-01T03:37:59.938Z,20.88
2022-08-01T03:40:51.765Z,20.81
2022-08-01T03:43:33.597Z,20.72
2022-08-01T03:46:09.018Z,20.54
2022-08-01T03:48:41.684Z,20.54
2022-08-01T03:51:10.744Z,20.54
2022-08-01T03:53:42.340Z,20.51
2022-08-01T03:56:11.260Z,20.48
2022-08-01T03:58:41.314Z,20.50
2022-08-01T04:01:15.495Z,20.55
2022-08-01T04:03:44.990Z,20.48
2022-08-01T04:06:12.036Z,20.51
2022-08-01T04:08:41.183Z,20.43
2022-08-01T04:11:10.801Z,20.46
2022-08-01T04:13:38.476Z,20.39
2022-08-01T04:16:06.005Z,20.27
2022-08-01T04:18:33.267Z,20.26
2022-08-01T04:21:00.504Z,20.29
2022-08-01T04:23:32.830Z,20.21
2022-08-01T04:26:05.075Z,20.18
2022-08-01T04:28:36.878Z,20.29
2022-08-01T04:31:10.559Z,20.36
2022-08-01T04:33:44.551Z,20.35
2022-08-01T04:36:13.482Z,20.26
2022-08-01T04:38:43.143Z,20.28
2022-08-01T04:41:13.975Z,20.27
2022-08-01T04:43:44.144Z,20.29
2022-08-01T04:46:12.985Z,20.30
2022-08-01T04:48:41.155Z,20.27
2022-08-01T04:51:16.432Z,20.20
2022-08-01T04:53:49.466Z,20.43
2022-08-01T04:56:16.388Z,20.57
2022-08-01T04:58:44.553Z,20.68
2022-08-01T05:01:12.147Z,20.77
2022-08-01T05:03:39.408Z,20.82
2022-08-01T05:06:06.956Z,20.80
2022-08-01T05:08:33.920Z,20.76
2022-08-01T05:11:02.212Z,20.71
2022-08-01T05:13:29.424Z,20.75
2022-08-01T05:15:56.515Z,20.79
2022-08-01T05:18:28.046Z,20.73
2022-08-01T05:20:56.100Z,20.78
2022-08-01T05:23:33.451Z,20.91
2022-08-01T05:26:11.485Z,21.00
2022-08-01T05:28:42.451Z,21.02
2022-08-01T05:31:09.385Z,20.95
2022-08-01T05:33:36.807Z,20.89
2022-08-01T05:36:04.037Z,20.79
2022-08-01T05:38:31.546Z,20.88
2022-08-01T05:40:58.456Z,20.97
2022-08-01T05:43:28.755Z,21.03
2022-08-01T05:45:56.521Z,21.00
2022-08-01T05:48:24.481Z,21.09
2022-08-01T05:50:58.000Z,21.10
2022-08-01T05:53:25.778Z,21.19
2022-08-01T05:55:52.604Z,21.14
2022-08-01T05:58:19.470Z,21.28
2022-08-01T06:00:46.296Z,21.45
2022-08-01T06:03:13.250Z,21.51
2022-08-01T06:05:40.100Z,21.51
2022-08-01T06:08:07.211Z,21.56
2022-08-01T06:10:34.026Z,21.73
2022-08-01T06:13:03.871Z,21.91
2022-08-01T06:15:32.589Z,22.08
2022-08-01T06:18:00.743Z,22.24
2022-08-01T06:20:27.882Z,22.26
2022-08-01T06:22:55.449Z,22.32
2022-08-01T06:25:23.506Z,22.42
2022-08-01T06:27:50.723Z,22.51
2022-08-01T06:30:17.977Z,22.56
2022-08-01T06:32:44.918Z,22.63
2022-08-01T06:35:12.088Z,22.69
2022-08-01T06:37:39.271Z,22.81
2022-08-01T06:40:13.412Z,22.98
2022-08-01T06:42:43.627Z,23.08
2022-08-01T06:45:12.056Z,23.12
2022-08-01T06:47:40.731Z,23.14
2022-08-01T06:50:13.091Z,23.22
2022-08-01T06:52:39.969Z,23.33
2022-08-01T06:55:07.858Z,23.47
2022-08-01T06:57:35.305Z,23.57
2022-08-01T07:00:12.624Z,23.66
2022-08-01T07:02:39.553Z,23.64
2022-08-01T07:05:06.844Z,23.64
2022-08-01T07:07:33.653Z,23.72
2022-08-01T07:10:00.475Z,23.76
2022-08-01T07:12:27.473Z,23.72
2022-08-01T07:14:54.443Z,23.70
2022-08-01T07:17:21.927Z,23.70
2022-08-01T07:19:49.515Z,23.72
2022-08-01T07:22:23.235Z,23.77
2022-08-01T07:24:54.556Z,23.92
2022-08-01T07:27:25.786Z,24.05
2022-08-01T07:29:53.663Z,24.23
2022-08-01T07:32:21.021Z,24.39
2022-08-01T07:34:47.950Z,24.31
2022-08-01T07:37:14.969Z,24.30
2022-08-01T07:39:41.967Z,24.39
2022-08-01T07:42:09.313Z,24.57
2022-08-01T07:44:37.954Z,24.79
2022-08-01T07:47:06.199Z,24.93
2022-08-01T07:49:39.158Z,24.99
2022-08-01T07:52:07.271Z,24.98
2022-08-01T07:54:35.191Z,24.91
2022-08-01T07:57:03.893Z,24.86
2022-08-01T07:59:31.154Z,24.87
2022-08-01T08:01:58.591Z,24.89
2022-08-01T08:04:26.827Z,24.82
2022-08-01T08:06:54.489Z,24.74
2022-08-01T08:09:21.431Z,24.72
2022-08-01T08:11:48.588Z,24.91
2022-08-01T08:14:19.972Z,25.02
2022-08-01T08:16:47.113Z,24.99
2022-08-01T08:19:14.302Z,24.95
2022-08-01T08:21:41.328Z,25.10
2022-08-01T08:24:26.716Z,25.21
2022-08-01T08:27:01.985Z,25.64
2022-08-01T08:29:33.254Z,26.05
2022-08-01T08:32:01.727Z,26.28
2022-08-01T08:34:29.920Z,26.07
2022-08-01T08:36:58.920Z,25.91
2022-08-01T08:39:27.105Z,26.04
2022-08-01T08:41:54.686Z,26.13
2022-08-01T08:44:26.675Z,26.39
2022-08-01T08:47:00.258Z,26.47
2022-08-01T08:49:35.943Z,26.37
2022-08-01T08:52:06.085Z,26.28
2022-08-01T08:54:37.915Z,26.45
2022-08-01T08:57:05.893Z,26.68
2022-08-01T08:59:33.037Z,26.97
2022-08-01T09:02:23.593Z,27.15
2022-08-01T09:04:54.396Z,26.90
2022-08-01T09:07:21.674Z,26.95
2022-08-01T09:09:50.062Z,27.39
2022-08-01T09:12:21.622Z,27.97
2022-08-01T09:14:51.249Z,28.16
2022-08-01T09:17:18.760Z,27.76
2022-08-01T09:19:52.595Z,27.42
2022-08-01T09:22:25.846Z,27.84
2022-08-01T09:25:10.031Z,27.70
2022-08-01T09:27:44.036Z,27.28
2022-08-01T09:30:23.383Z,27.04
2022-08-01T09:32:59.306Z,26.97
2022-08-01T09:35:36.457Z,27.22
2022-08-01T09:38:21.445Z,27.81
2022-08-01T09:41:01.829Z,28.14
2022-08-01T09:43:32.223Z,28.49
2022-08-01T09:46:05.409Z,28.81
2022-08-01T09:48:33.642Z,29.00
2022-08-01T09:51:07.467Z,28.70
2022-08-01T09:54:09.664Z,28.36
2022-08-01T09:56:43.699Z,27.99
2022-08-01T09:59:11.528Z,28.36
2022-08-01T10:01:50.905Z,29.10
2022-08-01T10:04:21.954Z,29.37
2022-08-01T10:06:55.430Z,28.87
2022-08-01T10:09:39.663Z,28.44
2022-08-01T10:12:16.242Z,28.12
2022-08-01T10:14:46.914Z,28.16
2022-08-01T10:17:20.720Z,28.42
2022-08-01T10:19:51.551Z,28.19
2022-08-01T10:22:24.363Z,27.89
2022-08-01T10:24:56.317Z,28.39
2022-08-01T10:27:39.432Z,29.28
2022-08-01T10:30:19.983Z,29.97
2022-08-01T10:32:57.309Z,29.54
2022-08-01T10:35:46.858Z,29.12
2022-08-01T10:38:13.587Z,29.35
2022-08-01T10:40:43.299Z,29.67
2022-08-01T10:43:21.336Z,30.11
2022-08-01T10:45:51.424Z,30.67
2022-08-01T10:48:52.119Z,31.13
2022-08-01T10:51:51.391Z,31.28
2022-08-01T10:54:13.625Z,31.49
2022-08-01T10:56:52.673Z,31.41
2022-08-01T10:59:49.379Z,31.49
2022-08-01T11:03:05.196Z,30.84
2022-08-01T11:06:08.283Z,30.47
2022-08-01T11:08:38.923Z,29.97
2022-08-01T11:11:08.964Z,29.60
2022-08-01T11:14:10.674Z,29.43
2022-08-01T11:16:41.726Z,29.41
2022-08-01T11:19:09.493Z,29.16
2022-08-01T11:21:56.932Z,28.97
2022-08-01T11:24:52.630Z,30.17
2022-08-01T11:27:33.563Z,31.22
2022-08-01T11:30:13.143Z,31.98
2022-08-01T11:33:10.307Z,31.95
2022-08-01T11:35:59.208Z,31.50
2022-08-01T11:38:30.941Z,31.49
2022-08-01T11:41:18.198Z,32.66
2022-08-01T11:44:10.122Z,32.58
2022-08-01T11:47:13.527Z,31.97
2022-08-01T11:49:55.872Z,32.68
2022-08-01T11:52:35.187Z,33.38
2022-08-01T11:55:10.505Z,33.39
2022-08-01T11:57:43.726Z,33.62
2022-08-01T12:00:20.476Z,34.41
2022-08-01T12:03:09.713Z,35.13
2022-08-01T12:05:43.247Z,35.39
2022-08-01T12:08:11.198Z,35.55
2022-08-01T12:10:47.164Z,35.78
2022-08-01T12:13:19.065Z,35.95
2022-08-01T12:15:56.217Z,34.17
2022-08-01T12:18:26.538Z,34.51
2022-08-01T12:21:06.907Z,34.91
2022-08-01T12:23:41.100Z,34.98
2022-08-01T12:26:32.474Z,35.24
2022-08-01T12:28:59.366Z,33.87
2022-08-01T12:31:34.738Z,32.69
2022-08-01T12:34:31.269Z,31.86
2022-08-01T12:37:03.765Z,31.98
2022-08-01T12:39:34.916Z,33.51
2022-08-01T12:42:06.179Z,34.34
2022-08-01T12:44:34.372Z,34.84
2022-08-01T12:47:04.033Z,35.44
2022-08-01T12:49:37.531Z,36.12
2022-08-01T12:52:12.868Z,36.54
2022-08-01T12:55:09.849Z,36.15
2022-08-01T12:57:45.727Z,36.14
2022-08-01T13:00:22.365Z,36.14
2022-08-01T13:03:10.094Z,35.95
2022-08-01T13:05:59.753Z,35.86
2022-08-01T13:08:34.117Z,34.03
2022-08-01T13:11:06.070Z,32.99
2022-08-01T13:13:44.327Z,32.56
2022-08-01T13:16:30.934Z,32.45
2022-08-01T13:19:11.579Z,32.14
2022-08-01T13:21:53.736Z,32.31
2022-08-01T13:24:32.165Z,32.94
2022-08-01T13:27:06.243Z,33.37
2022-08-01T13:29:44.354Z,33.65
2022-08-01T13:32:29.924Z,33.08
2022-08-01T13:35:10.725Z,33.28
2022-08-01T13:37:49.454Z,33.52
2022-08-01T13:40:30.490Z,33.08
2022-08-01T13:42:58.131Z,32.72
2022-08-01T13:45:26.411Z,34.23
2022-08-01T13:48:03.260Z,34.62
2022-08-01T13:50:39.520Z,34.42
2022-08-01T13:53:06.310Z,35.00
2022-08-01T13:55:35.325Z,34.63
2022-08-01T13:58:03.796Z,34.20
2022-08-01T14:00:31.206Z,34.39
2022-08-01T14:02:58.032Z,34.86
2022-08-01T14:05:24.910Z,35.54
2022-08-01T14:07:56.540Z,34.95
2022-08-01T14:10:24.950Z,33.82
2022-08-01T14:12:51.749Z,33.39
2022-08-01T14:15:38.189Z,33.21
2022-08-01T14:18:10.108Z,32.77
2022-08-01T14:20:39.390Z,33.04
2022-08-01T14:23:08.911Z,33.09
2022-08-01T14:26:02.736Z,33.16
2022-08-01T14:28:30.977Z,33.06
2022-08-01T14:30:59.245Z,32.65
2022-08-01T14:33:27.431Z,32.36
2022-08-01T14:36:06.680Z,32.62
2022-08-01T14:38:46.521Z,33.46
2022-08-01T14:41:17.707Z,33.22
2022-08-01T14:43:49.797Z,32.91
2022-08-01T14:46:17.480Z,32.94
2022-08-01T14:48:47.126Z,33.02
2022-08-01T14:51:14.407Z,32.73
2022-08-01T14:53:50.691Z,32.74
2022-08-01T14:56:18.574Z,32.02
2022-08-01T14:58:46.232Z,31.84
2022-08-01T15:01:19.733Z,31.51
2022-08-01T15:03:49.017Z,31.22
2022-08-01T15:06:16.911Z,31.01
2022-08-01T15:08:44.758Z,30.98
2022-08-01T15:11:12.760Z,30.85
2022-08-01T15:13:42.624Z,30.79
2022-08-01T15:16:10.196Z,30.75
2022-08-01T15:18:39.565Z,30.72
2022-08-01T15:21:06.932Z,30.60
2022-08-01T15:23:34.825Z,30.44
2022-08-01T15:26:01.716Z,30.36
2022-08-01T15:28:28.678Z,30.20
2022-08-01T15:30:55.845Z,30.14
2022-08-01T15:33:22.868Z,30.10
2022-08-01T15:35:53.430Z,29.98
2022-08-01T15:38:20.515Z,29.98
2022-08-01T15:40:47.329Z,29.98
2022-08-01T15:43:15.883Z,30.12
2022-08-01T15:45:47.716Z,30.15
2022-08-01T15:48:16.751Z,30.38
2022-08-01T15:50:44.058Z,30.48
2022-08-01T15:53:11.385Z,30.44
2022-08-01T15:55:39.766Z,30.39
2022-08-01T15:58:08.213Z,30.56
2022-08-01T16:00:39.158Z,30.60
2022-08-01T16:03:10.119Z,30.49
2022-08-01T16:05:42.851Z,30.23
2022-08-01T16:08:14.113Z,30.19
2022-08-01T16:10:41.487Z,30.03
2022-08-01T16:13:09.338Z,29.92
2022-08-01T16:15:37.862Z,29.80
2022-08-01T16:18:12.523Z,29.65
2022-08-01T16:20:45.124Z,29.57
2022-08-01T16:23:15.243Z,29.48
2022-08-01T16:25:42.394Z,29.36
2022-08-01T16:28:09.904Z,29.27
2022-08-01T16:30:47.831Z,29.29
2022-08-01T16:33:41.584Z,29.29
2022-08-01T16:36:09.387Z,29.31
2022-08-01T16:38:45.042Z,29.29
2022-08-01T16:41:19.410Z,29.22
2022-08-01T16:43:53.405Z,29.18
2022-08-01T16:46:25.509Z,29.23
2022-08-01T16:48:53.979Z,29.12
2022-08-01T16:51:21.001Z,29.03
2022-08-01T16:53:48.215Z,28.91
2022-08-01T16:56:15.043Z,28.88
2022-08-01T16:58:41.916Z,28.81
2022-08-01T17:01:58.316Z,28.68
2022-08-01T17:04:00.912Z,28.65
2022-08-01T17:06:31.561Z,28.57
2022-08-01T17:09:03.520Z,28.47
2022-08-01T17:11:31.465Z,28.35
2022-08-01T17:14:00.758Z,28.24
2022-08-01T17:16:27.657Z,28.14
2022-08-01T17:18:54.511Z,28.06
2022-08-01T17:21:21.511Z,28.00
2022-08-01T17:23:48.786Z,27.92
2022-08-01T17:26:15.821Z,27.90
2022-08-01T17:28:43.570Z,27.96
2022-08-01T17:31:10.873Z,27.91
2022-08-01T17:33:45.490Z,27.92
2022-08-01T17:36:14.040Z,27.91
2022-08-01T17:38:40.985Z,27.82
2022-08-01T17:41:08.937Z,27.76
2022-08-01T17:43:37.283Z,27.72
2022-08-01T17:46:04.148Z,27.68
2022-08-01T17:48:31.026Z,27.58
2022-08-01T17:50:57.906Z,27.52
2022-08-01T17:53:24.808Z,27.51
2022-08-01T17:55:53.252Z,27.50
2022-08-01T17:58:33.029Z,27.44
2022-08-01T18:01:17.303Z,27.44
2022-08-01T18:03:45.956Z,27.47
2022-08-01T18:06:19.237Z,27.41
2022-08-01T18:08:47.959Z,27.38
2022-08-01T18:11:17.109Z,27.38
2022-08-01T18:13:44.719Z,27.33
2022-08-01T18:16:13.200Z,27.27
2022-08-01T18:18:42.244Z,27.23
2022-08-01T18:21:11.770Z,27.23
2022-08-01T18:23:38.608Z,27.24
2022-08-01T18:26:09.043Z,27.22
2022-08-01T18:28:46.316Z,27.18
2022-08-01T18:31:17.275Z,27.15
2022-08-01T18:33:44.834Z,27.10
2022-08-01T18:36:25.486Z,27.08
2022-08-01T18:39:00.254Z,27.06
2022-08-01T18:41:27.243Z,26.93
2022-08-01T18:44:03.924Z,26.90
2022-08-01T18:46:39.600Z,26.89
2022-08-01T18:49:11.100Z,26.86
2022-08-01T18:51:43.733Z,26.79
2022-08-01T18:54:14.026Z,26.81
2022-08-01T18:56:45.510Z,26.76
2022-08-01T18:59:15.910Z,26.71
2022-08-01T19:01:43.735Z,26.74
2022-08-01T19:04:11.711Z,26.70
2022-08-01T19:06:39.068Z,26.67
2022-08-01T19:09:07.917Z,26.58
2022-08-01T19:11:36.716Z,26.58
2022-08-01T19:14:04.223Z,26.48
2022-08-01T19:16:31.563Z,26.46
2022-08-01T19:18:58.548Z,26.41
2022-08-01T19:21:25.708Z,26.33
2022-08-01T19:24:11.215Z,26.34
2022-08-01T19:26:40.385Z,26.34
2022-08-01T19:29:19.066Z,26.33
2022-08-01T19:31:49.204Z,26.24
2022-08-01T19:34:20.130Z,26.23
2022-08-01T19:36:57.069Z,26.26
2022-08-01T19:39:29.666Z,26.23
2022-08-01T19:41:59.312Z,26.23
2022-08-01T19:44:28.854Z,26.11
2022-08-01T19:46:55.967Z,26.01
2022-08-01T19:49:23.948Z,26.01
2022-08-01T19:52:03.890Z,26.03
2022-08-01T19:54:38.478Z,26.04
2022-08-01T19:57:08.155Z,26.02
2022-08-01T19:59:36.850Z,25.98
2022-08-01T20:02:05.226Z,25.99
2022-08-01T20:04:33.835Z,25.98
2022-08-01T20:07:02.927Z,25.94
2022-08-01T20:09:31.462Z,25.90
2022-08-01T20:11:58.386Z,25.91
2022-08-01T20:14:27.011Z,25.88
2022-08-01T20:16:58.501Z,25.78
2022-08-01T20:19:27.571Z,25.75
2022-08-01T20:22:04.651Z,25.65
2022-08-01T20:24:43.606Z,25.60
2022-08-01T20:27:13.939Z,25.61
2022-08-01T20:29:44.143Z,25.61
2022-08-01T20:32:11.949Z,25.63
2022-08-01T20:34:39.730Z,25.55
2022-08-01T20:37:09.467Z,25.54
2022-08-01T20:39:45.202Z,25.62
2022-08-01T20:42:14.707Z,25.62
2022-08-01T20:44:43.354Z,25.62
2022-08-01T20:47:10.700Z,25.60
2022-08-01T20:49:38.066Z,25.55
2022-08-01T20:52:11.829Z,25.55
2022-08-01T20:54:43.111Z,25.55
2022-08-01T20:57:26.281Z,25.52
2022-08-01T21:00:05.667Z,25.51
2022-08-01T21:02:51.366Z,25.43
2022-08-01T21:05:55.757Z,25.42
2022-08-01T21:08:58.678Z,25.37
2022-08-01T21:11:32.936Z,25.37
2022-08-01T21:14:06.076Z,25.29
2022-08-01T21:16:40.697Z,25.26
2022-08-01T21:19:27.827Z,25.24
2022-08-01T21:22:14.531Z,25.17
2022-08-01T21:25:08.311Z,25.16
2022-08-01T21:27:39.540Z,25.20
2022-08-01T21:30:10.673Z,25.19
2022-08-01T21:32:42.421Z,25.17
2022-08-01T21:35:16.282Z,25.16
2022-08-01T21:37:51.891Z,25.08
2022-08-01T21:40:22.815Z,25.09
2022-08-01T21:42:52.930Z,25.05
2022-08-01T21:45:23.355Z,25.05
2022-08-01T21:47:51.620Z,25.04
2022-08-01T21:50:27.302Z,25.00
2022-08-01T21:53:30.549Z,24.97
2022-08-01T21:56:14.981Z,24.87
2022-08-01T21:59:05.334Z,24.79
2022-08-01T22:02:02.035Z,24.78
2022-08-01T22:05:01.555Z,24.73
2022-08-01T22:07:36.827Z,24.70
2022-08-01T22:10:06.759Z,24.64
2022-08-01T22:12:36.061Z,24.56
2022-08-01T22:15:06.920Z,24.46
2022-08-01T22:17:34.765Z,24.35
2022-08-01T22:20:04.292Z,24.30
2022-08-01T22:22:51.248Z,24.27
2022-08-01T22:25:54.211Z,24.16
2022-08-01T22:28:25.043Z,24.08
2022-08-01T22:31:07.423Z,23.98
2022-08-01T22:33:39.171Z,23.92
2022-08-01T22:36:08.913Z,23.92
2022-08-01T22:38:39.906Z,23.92
2022-08-01T22:41:15.523Z,23.93
2022-08-01T22:44:13.896Z,23.77
2022-08-01T22:47:01.640Z,23.55
2022-08-01T22:50:02.076Z,23.54
2022-08-01T22:52:35.354Z,23.54
2022-08-01T22:55:12.964Z,23.43
2022-08-01T22:58:03.545Z,23.40
2022-08-01T23:00:35.258Z,23.35
2022-08-01T23:03:14.653Z,23.27
2022-08-01T23:06:34.546Z,23.28
2022-08-01T23:09:03.636Z,23.13
2022-08-01T23:11:34.166Z,22.95
2022-08-01T23:16:31.330Z,22.89
2022-08-01T23:18:59.784Z,22.92
2022-08-01T23:21:32.350Z,22.82
2022-08-01T23:24:02.073Z,22.76
2022-08-01T23:26:32.074Z,22.77
2022-08-01T23:28:59.483Z,22.69
2022-08-01T23:32:00.431Z,22.68
2022-08-01T23:34:19.809Z,22.69
2022-08-01T23:36:47.331Z,22.66
2022-08-01T23:39:14.185Z,22.51
2022-08-01T23:41:58.603Z,22.34
2022-08-01T23:44:28.950Z,22.30
2022-08-01T23:46:55.922Z,22.34
2022-08-01T23:49:23.141Z,22.34
2022-08-01T23:51:50.508Z,22.38
2022-08-01T23:54:17.766Z,22.39
2022-08-01T23:56:44.634Z,22.27
2022-08-01T23:59:15.137Z,22.20
